Portada
METAR-TAF:

METAR-TAF

Aeropuertos :

Jijel, Argelia

latitud: 36-53N, longitud: 005-49E, altitud: 2 m

Observación

El informe se hizo hace 41 minutos, a las 07:00 UTC
Viento 3 kt del sur-sureste
Temperatura 7°C
Humedad 93%
Presión 1029 hPa
Visibilidad 10 km o más
sin nubes por debajo de 1500 m y sin presencia de cumulonimbus.

METAR: DAAV 250700Z 16003KT CAVOK 07/06 Q1029

Hora: 08:41 (07:41 UTC)

Pronóstico

El informe se hizo hace 2 horas y 41 minutos, a las 05:00 UTC
Pronóstico válido del 25 a las 06 UTC al 26 a las 06 UTC
Viento 8 kt del este-noreste
Visibilidad 10 km o más
Escasas nubes a una altura de 3000 ft
Nubes dispersas a una altura de 10000 ft

TAF: DAAV 250500Z 2506/2606 07008KT 9999 FEW030 SCT100

Observaciones y pronósticos meteorológicos de más de 4000 aeropuertos (mensajes METAR y TAF).

Los puntos amarillos y rojos representan las estaciones disponibles.

Ponga el ratón en el punto deseado para ver el nombre de la estación.

Haga clic para ver las observaciones y los pronósticos meteorológicos.

Para cambiar el mapa : haga clic en los botones verdes con una cruz de color negro para hacer un zoom, en el botón verde con un guión para alejar o en las flechas verdes para mapas adyacentes.


METAR-TAF: